sensor_id;sensor_type;location;lat;lon;timestamp;pressure;altitude;pressure_sealevel;temperature;humidity
56272;BME280;42177;48.914;18.160;2022-09-21T00:03:57;990.5;;;10.2;100
56272;BME280;42177;48.914;18.160;2022-09-21T00:08:56;990.5;;;10.2;100
56272;BME280;42177;48.914;18.160;2022-09-21T00:13:57;990.5;;;10.4;100
56272;BME280;42177;48.914;18.160;2022-09-21T00:18:57;990.5;;;10.4;100
56272;BME280;42177;48.914;18.160;2022-09-21T00:23:57;990.4;;;10.4;100
56272;BME280;42177;48.914;18.160;2022-09-21T00:28:57;990.4;;;10.4;100
56272;BME280;42177;48.914;18.160;2022-09-21T00:33:57;990.3;;;10.4;100
56272;BME280;42177;48.914;18.160;2022-09-21T00:38:57;990.3;;;10.4;100
56272;BME280;42177;48.914;18.160;2022-09-21T00:44:29;990.4;;;10.4;100
56272;BME280;42177;48.914;18.160;2022-09-21T00:48:56;990.4;;;10.4;100
56272;BME280;42177;48.914;18.160;2022-09-21T00:53:57;990.3;;;10.3;100
56272;BME280;42177;48.914;18.160;2022-09-21T00:58:56;990.3;;;10.3;100
56272;BME280;42177;48.914;18.160;2022-09-21T01:03:56;990.4;;;10.2;100
56272;BME280;42177;48.914;18.160;2022-09-21T01:08:56;990.4;;;10.2;100
56272;BME280;42177;48.914;18.160;2022-09-21T01:14:33;990.4;;;10;100
56272;BME280;42177;48.914;18.160;2022-09-21T01:18:57;990.4;;;10;100
56272;BME280;42177;48.914;18.160;2022-09-21T01:24:07;990.4;;;10;100
56272;BME280;42177;48.914;18.160;2022-09-21T01:28:58;990.4;;;10;100
56272;BME280;42177;48.914;18.160;2022-09-21T01:33:57;990.4;;;10;100
56272;BME280;42177;48.914;18.160;2022-09-21T01:38:57;990.4;;;10;100
56272;BME280;42177;48.914;18.160;2022-09-21T01:43:57;990.4;;;9.8;100
56272;BME280;42177;48.914;18.160;2022-09-21T01:48:57;990.4;;;9.8;100
56272;BME280;42177;48.914;18.160;2022-09-21T01:53:57;990.3;;;9.9;100
56272;BME280;42177;48.914;18.160;2022-09-21T01:58:58;990.3;;;9.9;100
56272;BME280;42177;48.914;18.160;2022-09-21T02:03:57;990.3;;;9.9;100
56272;BME280;42177;48.914;18.160;2022-09-21T02:08:56;990.3;;;9.9;100
56272;BME280;42177;48.914;18.160;2022-09-21T02:13:56;990.5;;;9.8;100
56272;BME280;42177;48.914;18.160;2022-09-21T02:19:00;990.5;;;9.8;100
56272;BME280;42177;48.914;18.160;2022-09-21T02:23:59;990.5;;;9.9;100
56272;BME280;42177;48.914;18.160;2022-09-21T02:28:58;990.5;;;9.9;100
56272;BME280;42177;48.914;18.160;2022-09-21T02:33:57;990.5;;;9.8;100
56272;BME280;42177;48.914;18.160;2022-09-21T02:38:59;990.5;;;9.8;100
56272;BME280;42177;48.914;18.160;2022-09-21T02:43:58;990.5;;;9.6;100
56272;BME280;42177;48.914;18.160;2022-09-21T02:48:57;990.5;;;9.6;100
56272;BME280;42177;48.914;18.160;2022-09-21T02:53:56;990.6;;;9.8;100
56272;BME280;42177;48.914;18.160;2022-09-21T02:58:58;990.6;;;9.8;100
56272;BME280;42177;48.914;18.160;2022-09-21T03:03:56;990.7;;;9.8;100
56272;BME280;42177;48.914;18.160;2022-09-21T03:08:56;990.7;;;9.8;100
56272;BME280;42177;48.914;18.160;2022-09-21T03:13:56;990.9;;;9.9;100
56272;BME280;42177;48.914;18.160;2022-09-21T03:18:56;990.9;;;9.9;100
56272;BME280;42177;48.914;18.160;2022-09-21T03:23:56;990.9;;;9.8;100
56272;BME280;42177;48.914;18.160;2022-09-21T03:28:56;990.9;;;9.8;100
56272;BME280;42177;48.914;18.160;2022-09-21T03:33:56;991.1;;;10.1;100
56272;BME280;42177;48.914;18.160;2022-09-21T03:38:56;991.1;;;10.1;100
56272;BME280;42177;48.914;18.160;2022-09-21T03:43:57;990.9;;;10.1;100
56272;BME280;42177;48.914;18.160;2022-09-21T03:48:57;990.9;;;10.1;100
56272;BME280;42177;48.914;18.160;2022-09-21T03:53:56;991;;;10.1;100
56272;BME280;42177;48.914;18.160;2022-09-21T03:58:56;991;;;10.1;100
56272;BME280;42177;48.914;18.160;2022-09-21T04:03:56;991.1;;;9.9;100
56272;BME280;42177;48.914;18.160;2022-09-21T04:08:56;991.1;;;9.9;100
56272;BME280;42177;48.914;18.160;2022-09-21T04:13:56;991.2;;;9.9;100
56272;BME280;42177;48.914;18.160;2022-09-21T04:18:56;991.2;;;9.9;100
56272;BME280;42177;48.914;18.160;2022-09-21T04:23:56;991.3;;;9.9;100
56272;BME280;42177;48.914;18.160;2022-09-21T04:28:57;991.3;;;9.9;100
56272;BME280;42177;48.914;18.160;2022-09-21T04:33:56;991.4;;;9.9;100
56272;BME280;42177;48.914;18.160;2022-09-21T04:38:56;991.4;;;9.9;100
56272;BME280;42177;48.914;18.160;2022-09-21T04:43:56;991.4;;;10;100
56272;BME280;42177;48.914;18.160;2022-09-21T04:48:56;991.4;;;10;100
56272;BME280;42177;48.914;18.160;2022-09-21T04:53:56;991.4;;;10;100
56272;BME280;42177;48.914;18.160;2022-09-21T04:58:56;991.4;;;10;100
56272;BME280;42177;48.914;18.160;2022-09-21T05:03:56;991.4;;;10.1;100
56272;BME280;42177;48.914;18.160;2022-09-21T05:08:56;991.4;;;10.1;100
56272;BME280;42177;48.914;18.160;2022-09-21T05:13:56;991.4;;;10.1;100
56272;BME280;42177;48.914;18.160;2022-09-21T05:18:56;991.4;;;10.1;100
56272;BME280;42177;48.914;18.160;2022-09-21T05:23:56;991.5;;;10.2;100
56272;BME280;42177;48.914;18.160;2022-09-21T05:28:57;991.5;;;10.2;100
56272;BME280;42177;48.914;18.160;2022-09-21T05:33:58;991.5;;;10.2;100
56272;BME280;42177;48.914;18.160;2022-09-21T05:38:57;991.5;;;10.2;100
56272;BME280;42177;48.914;18.160;2022-09-21T05:43:56;991.6;;;10.5;100
56272;BME280;42177;48.914;18.160;2022-09-21T05:48:57;991.6;;;10.5;100
56272;BME280;42177;48.914;18.160;2022-09-21T05:53:57;991.6;;;10.6;100
56272;BME280;42177;48.914;18.160;2022-09-21T05:58:59;991.6;;;10.6;100
56272;BME280;42177;48.914;18.160;2022-09-21T06:03:57;991.7;;;10.7;100
56272;BME280;42177;48.914;18.160;2022-09-21T06:08:56;991.7;;;10.7;100
56272;BME280;42177;48.914;18.160;2022-09-21T06:13:56;991.7;;;11.1;100
56272;BME280;42177;48.914;18.160;2022-09-21T06:18:56;991.7;;;11.1;100
56272;BME280;42177;48.914;18.160;2022-09-21T06:23:56;991.7;;;11.6;100
56272;BME280;42177;48.914;18.160;2022-09-21T06:28:56;991.7;;;11.6;100
56272;BME280;42177;48.914;18.160;2022-09-21T06:33:56;991.8;;;11.4;100
56272;BME280;42177;48.914;18.160;2022-09-21T06:38:56;991.8;;;11.4;100
56272;BME280;42177;48.914;18.160;2022-09-21T06:43:56;992;;;11.4;100
56272;BME280;42177;48.914;18.160;2022-09-21T06:48:56;992;;;11.4;100
56272;BME280;42177;48.914;18.160;2022-09-21T06:53:57;992;;;11.6;100
56272;BME280;42177;48.914;18.160;2022-09-21T06:58:56;992;;;11.6;100
56272;BME280;42177;48.914;18.160;2022-09-21T07:03:56;992.1;;;12;100
56272;BME280;42177;48.914;18.160;2022-09-21T07:08:56;992.1;;;12;100
56272;BME280;42177;48.914;18.160;2022-09-21T07:13:56;992;;;12.8;97.5
56272;BME280;42177;48.914;18.160;2022-09-21T07:18:56;992;;;12.8;97.5
56272;BME280;42177;48.914;18.160;2022-09-21T07:23:57;992.1;;;13.2;93.8
56272;BME280;42177;48.914;18.160;2022-09-21T07:28:56;992.1;;;13.2;93.8
56272;BME280;42177;48.914;18.160;2022-09-21T07:33:56;992.2;;;12.4;99.3
56272;BME280;42177;48.914;18.160;2022-09-21T07:38:56;992.2;;;12.4;99.3
56272;BME280;42177;48.914;18.160;2022-09-21T07:43:56;992.2;;;12.3;100
56272;BME280;42177;48.914;18.160;2022-09-21T07:48:56;992.2;;;12.3;100
56272;BME280;42177;48.914;18.160;2022-09-21T07:53:56;992.2;;;13.4;98.8
56272;BME280;42177;48.914;18.160;2022-09-21T07:58:56;992.2;;;13.4;98.8
56272;BME280;42177;48.914;18.160;2022-09-21T08:03:57;992.1;;;13.2;94.9
56272;BME280;42177;48.914;18.160;2022-09-21T08:08:56;992.1;;;13.2;94.9
56272;BME280;42177;48.914;18.160;2022-09-21T08:13:57;992.2;;;12.9;96
56272;BME280;42177;48.914;18.160;2022-09-21T08:18:56;992.2;;;12.9;96
56272;BME280;42177;48.914;18.160;2022-09-21T08:23:56;992.1;;;12.9;93.6
56272;BME280;42177;48.914;18.160;2022-09-21T08:28:56;992.1;;;12.9;93.6
56272;BME280;42177;48.914;18.160;2022-09-21T08:33:56;992.3;;;13.4;94
56272;BME280;42177;48.914;18.160;2022-09-21T08:38:56;992.3;;;13.4;94
56272;BME280;42177;48.914;18.160;2022-09-21T08:43:58;992.4;;;14.3;88.5
56272;BME280;42177;48.914;18.160;2022-09-21T08:48:57;992.4;;;14.3;88.5
56272;BME280;42177;48.914;18.160;2022-09-21T08:53:57;992.3;;;14.5;86.9
56272;BME280;42177;48.914;18.160;2022-09-21T08:58:56;992.3;;;14.5;86.9
56272;BME280;42177;48.914;18.160;2022-09-21T09:04:16;992.4;;;14.4;85.8
56272;BME280;42177;48.914;18.160;2022-09-21T09:09:07;992.4;;;14.4;85.8
56272;BME280;42177;48.914;18.160;2022-09-21T09:14:02;992.3;;;14.2;86.2
56272;BME280;42177;48.914;18.160;2022-09-21T09:18:57;992.3;;;14.2;86.2
56272;BME280;42177;48.914;18.160;2022-09-21T09:23:57;992.1;;;14.5;83.4
56272;BME280;42177;48.914;18.160;2022-09-21T09:28:57;992.1;;;14.5;83.4
56272;BME280;42177;48.914;18.160;2022-09-21T09:33:58;992.1;;;15.5;78.7
56272;BME280;42177;48.914;18.160;2022-09-21T09:38:57;992.1;;;15.5;78.7
56272;BME280;42177;48.914;18.160;2022-09-21T09:44:00;992;;;14.5;79.5
56272;BME280;42177;48.914;18.160;2022-09-21T09:49:02;992;;;14.5;79.5
56272;BME280;42177;48.914;18.160;2022-09-21T09:53:57;992;;;14.4;81.2
56272;BME280;42177;48.914;18.160;2022-09-21T09:58:57;992;;;14.4;81.2
56272;BME280;42177;48.914;18.160;2022-09-21T10:04:03;992;;;14.8;79.4
56272;BME280;42177;48.914;18.160;2022-09-21T10:08:56;992;;;14.8;79.4
56272;BME280;42177;48.914;18.160;2022-09-21T10:13:56;991.9;;;15.9;72.6
56272;BME280;42177;48.914;18.160;2022-09-21T10:18:57;991.9;;;15.9;72.6
56272;BME280;42177;48.914;18.160;2022-09-21T10:23:57;991.7;;;17.2;63.7
56272;BME280;42177;48.914;18.160;2022-09-21T10:28:57;991.7;;;17.2;63.7
56272;BME280;42177;48.914;18.160;2022-09-21T10:34:05;991.6;;;17.6;58.5
56272;BME280;42177;48.914;18.160;2022-09-21T10:39:29;991.6;;;17.6;58.5
56272;BME280;42177;48.914;18.160;2022-09-21T10:43:56;991.7;;;15.4;69.4
56272;BME280;42177;48.914;18.160;2022-09-21T10:48:56;991.7;;;15.4;69.4
56272;BME280;42177;48.914;18.160;2022-09-21T10:53:56;991.7;;;14.6;74.9
56272;BME280;42177;48.914;18.160;2022-09-21T10:59:19;991.7;;;14.6;74.9
56272;BME280;42177;48.914;18.160;2022-09-21T11:03:57;991.8;;;14.3;75
56272;BME280;42177;48.914;18.160;2022-09-21T11:08:57;991.8;;;14.3;75
56272;BME280;42177;48.914;18.160;2022-09-21T11:13:57;991.8;;;14.4;80.3
56272;BME280;42177;48.914;18.160;2022-09-21T11:18:57;991.8;;;14.4;80.3
56272;BME280;42177;48.914;18.160;2022-09-21T11:23:58;991.7;;;14.4;80.4
56272;BME280;42177;48.914;18.160;2022-09-21T11:28:57;991.7;;;14.4;80.4
56272;BME280;42177;48.914;18.160;2022-09-21T11:34:02;991.6;;;15;75.7
56272;BME280;42177;48.914;18.160;2022-09-21T11:38:59;991.6;;;15;75.7
56272;BME280;42177;48.914;18.160;2022-09-21T11:44:00;991.6;;;15.6;70.5
56272;BME280;42177;48.914;18.160;2022-09-21T11:49:02;991.6;;;15.6;70.5
56272;BME280;42177;48.914;18.160;2022-09-21T11:54:04;991.6;;;15.5;70.1
56272;BME280;42177;48.914;18.160;2022-09-21T11:58:59;991.6;;;15.5;70.1
56272;BME280;42177;48.914;18.160;2022-09-21T12:04:00;991.6;;;15.6;70.2
56272;BME280;42177;48.914;18.160;2022-09-21T12:09:01;991.6;;;15.6;70.2
56272;BME280;42177;48.914;18.160;2022-09-21T12:13:58;991.5;;;17.5;61
56272;BME280;42177;48.914;18.160;2022-09-21T12:18:58;991.5;;;17.5;61
56272;BME280;42177;48.914;18.160;2022-09-21T12:23:58;991.4;;;17.2;62.8
56272;BME280;42177;48.914;18.160;2022-09-21T12:28:58;991.4;;;17.2;62.8
56272;BME280;42177;48.914;18.160;2022-09-21T12:33:57;991.3;;;16.5;66.2
56272;BME280;42177;48.914;18.160;2022-09-21T12:38:58;991.3;;;16.5;66.2
56272;BME280;42177;48.914;18.160;2022-09-21T12:43:59;991.3;;;15.4;67
56272;BME280;42177;48.914;18.160;2022-09-21T12:48:57;991.3;;;15.4;67
56272;BME280;42177;48.914;18.160;2022-09-21T12:53:57;991.5;;;15.1;69.6
56272;BME280;42177;48.914;18.160;2022-09-21T12:59:06;991.5;;;15.1;69.6
56272;BME280;42177;48.914;18.160;2022-09-21T13:04:00;991.5;;;16.4;68
56272;BME280;42177;48.914;18.160;2022-09-21T13:08:56;991.5;;;16.4;68
56272;BME280;42177;48.914;18.160;2022-09-21T13:13:57;991.6;;;15.6;74.8
56272;BME280;42177;48.914;18.160;2022-09-21T13:18:57;991.6;;;15.6;74.8
56272;BME280;42177;48.914;18.160;2022-09-21T13:23:57;991.5;;;15.2;75.5
56272;BME280;42177;48.914;18.160;2022-09-21T13:29:02;991.5;;;15.2;75.5
56272;BME280;42177;48.914;18.160;2022-09-21T13:34:04;991.4;;;15;76
56272;BME280;42177;48.914;18.160;2022-09-21T13:39:03;991.4;;;15;76
56272;BME280;42177;48.914;18.160;2022-09-21T13:44:00;991.4;;;14.7;76.9
56272;BME280;42177;48.914;18.160;2022-09-21T13:48:57;991.4;;;14.7;76.9
56272;BME280;42177;48.914;18.160;2022-09-21T13:53:56;991.5;;;14.7;78.3
56272;BME280;42177;48.914;18.160;2022-09-21T13:58:56;991.5;;;14.7;78.3
56272;BME280;42177;48.914;18.160;2022-09-21T14:03:57;991.5;;;15.2;77.7
56272;BME280;42177;48.914;18.160;2022-09-21T14:08:57;991.5;;;15.2;77.7
56272;BME280;42177;48.914;18.160;2022-09-21T14:13:59;991.4;;;17.2;67.9
56272;BME280;42177;48.914;18.160;2022-09-21T14:18:56;991.4;;;17.2;67.9
56272;BME280;42177;48.914;18.160;2022-09-21T14:24:33;991.4;;;15.7;72.9
56272;BME280;42177;48.914;18.160;2022-09-21T14:28:56;991.4;;;15.7;72.9
56272;BME280;42177;48.914;18.160;2022-09-21T14:33:57;991.4;;;15.2;74.4
56272;BME280;42177;48.914;18.160;2022-09-21T14:38:57;991.4;;;15.2;74.4
56272;BME280;42177;48.914;18.160;2022-09-21T14:43:56;991.4;;;15;74.5
56272;BME280;42177;48.914;18.160;2022-09-21T14:48:58;991.4;;;15;74.5
56272;BME280;42177;48.914;18.160;2022-09-21T14:54:02;991.3;;;15.3;75.8
56272;BME280;42177;48.914;18.160;2022-09-21T14:59:02;991.3;;;15.3;75.8
56272;BME280;42177;48.914;18.160;2022-09-21T15:04:00;991.3;;;16.3;72
56272;BME280;42177;48.914;18.160;2022-09-21T15:09:02;991.3;;;16.3;72
56272;BME280;42177;48.914;18.160;2022-09-21T15:14:09;991.3;;;17.8;68.7
56272;BME280;42177;48.914;18.160;2022-09-21T15:19:01;991.3;;;17.8;68.7
56272;BME280;42177;48.914;18.160;2022-09-21T15:23:57;991.3;;;17.1;66.1
56272;BME280;42177;48.914;18.160;2022-09-21T15:28:57;991.3;;;17.1;66.1
56272;BME280;42177;48.914;18.160;2022-09-21T15:33:57;991.3;;;15.2;75.1
56272;BME280;42177;48.914;18.160;2022-09-21T15:38:57;991.3;;;15.2;75.1
56272;BME280;42177;48.914;18.160;2022-09-21T15:43:56;991.4;;;14.8;77.8
56272;BME280;42177;48.914;18.160;2022-09-21T15:48:56;991.4;;;14.8;77.8
56272;BME280;42177;48.914;18.160;2022-09-21T15:53:57;991.5;;;16;72
56272;BME280;42177;48.914;18.160;2022-09-21T15:58:57;991.5;;;16;72
56272;BME280;42177;48.914;18.160;2022-09-21T16:04:00;991.5;;;14.5;76.1
56272;BME280;42177;48.914;18.160;2022-09-21T16:08:56;991.5;;;14.5;76.1
56272;BME280;42177;48.914;18.160;2022-09-21T16:13:57;991.5;;;14.1;78.5
56272;BME280;42177;48.914;18.160;2022-09-21T16:18:57;991.5;;;14.1;78.5
56272;BME280;42177;48.914;18.160;2022-09-21T16:23:57;991.6;;;13.8;80.4
56272;BME280;42177;48.914;18.160;2022-09-21T16:28:58;991.6;;;13.8;80.4
56272;BME280;42177;48.914;18.160;2022-09-21T16:33:58;991.7;;;13.7;83
56272;BME280;42177;48.914;18.160;2022-09-21T16:38:57;991.7;;;13.7;83
56272;BME280;42177;48.914;18.160;2022-09-21T16:43:56;991.9;;;13.7;84.4
56272;BME280;42177;48.914;18.160;2022-09-21T16:48:57;991.9;;;13.7;84.4
56272;BME280;42177;48.914;18.160;2022-09-21T16:53:56;991.8;;;13.7;85.9
56272;BME280;42177;48.914;18.160;2022-09-21T16:58:56;991.8;;;13.7;85.9
56272;BME280;42177;48.914;18.160;2022-09-21T17:03:56;991.7;;;13.6;87
56272;BME280;42177;48.914;18.160;2022-09-21T17:08:56;991.7;;;13.6;87
56272;BME280;42177;48.914;18.160;2022-09-21T17:13:56;991.8;;;13.4;90.7
56272;BME280;42177;48.914;18.160;2022-09-21T17:18:56;991.8;;;13.4;90.7
56272;BME280;42177;48.914;18.160;2022-09-21T17:23:56;992;;;13.3;90.6
56272;BME280;42177;48.914;18.160;2022-09-21T17:28:56;992;;;13.3;90.6
56272;BME280;42177;48.914;18.160;2022-09-21T17:33:57;992;;;13;93.9
56272;BME280;42177;48.914;18.160;2022-09-21T17:38:56;992;;;13;93.9
56272;BME280;42177;48.914;18.160;2022-09-21T17:43:58;992.1;;;12.9;94.1
56272;BME280;42177;48.914;18.160;2022-09-21T17:48:57;992.1;;;12.9;94.1
56272;BME280;42177;48.914;18.160;2022-09-21T17:53:57;992.2;;;12.6;94.4
56272;BME280;42177;48.914;18.160;2022-09-21T17:58:57;992.2;;;12.6;94.4
56272;BME280;42177;48.914;18.160;2022-09-21T18:03:56;992.2;;;12.3;96
56272;BME280;42177;48.914;18.160;2022-09-21T18:08:57;992.2;;;12.3;96
56272;BME280;42177;48.914;18.160;2022-09-21T18:13:58;992.3;;;12.1;97.5
56272;BME280;42177;48.914;18.160;2022-09-21T18:19:00;992.3;;;12.1;97.5
56272;BME280;42177;48.914;18.160;2022-09-21T18:24:04;992.5;;;12.1;97.6
56272;BME280;42177;48.914;18.160;2022-09-21T18:28:57;992.5;;;12.1;97.6
56272;BME280;42177;48.914;18.160;2022-09-21T18:34:00;992.5;;;11.9;97.5
56272;BME280;42177;48.914;18.160;2022-09-21T18:39:01;992.5;;;11.9;97.5
56272;BME280;42177;48.914;18.160;2022-09-21T18:43:59;992.5;;;11.8;98
56272;BME280;42177;48.914;18.160;2022-09-21T18:48:58;992.5;;;11.8;98
56272;BME280;42177;48.914;18.160;2022-09-21T18:53:57;992.6;;;11.8;98.6
56272;BME280;42177;48.914;18.160;2022-09-21T18:58:56;992.6;;;11.8;98.6
56272;BME280;42177;48.914;18.160;2022-09-21T19:03:57;992.7;;;11.7;99.8
56272;BME280;42177;48.914;18.160;2022-09-21T19:08:58;992.7;;;11.7;99.8
56272;BME280;42177;48.914;18.160;2022-09-21T19:13:58;992.6;;;11.7;100
56272;BME280;42177;48.914;18.160;2022-09-21T19:19:00;992.6;;;11.7;100
56272;BME280;42177;48.914;18.160;2022-09-21T19:23:59;992.6;;;11.9;100
56272;BME280;42177;48.914;18.160;2022-09-21T19:29:01;992.6;;;11.9;100
56272;BME280;42177;48.914;18.160;2022-09-21T19:33:57;992.5;;;12.1;100
56272;BME280;42177;48.914;18.160;2022-09-21T19:38:57;992.5;;;12.1;100
56272;BME280;42177;48.914;18.160;2022-09-21T19:43:58;992.3;;;11.7;100
56272;BME280;42177;48.914;18.160;2022-09-21T19:48:58;992.3;;;11.7;100
56272;BME280;42177;48.914;18.160;2022-09-21T19:53:56;992.5;;;11.7;100
56272;BME280;42177;48.914;18.160;2022-09-21T19:58:57;992.5;;;11.7;100
56272;BME280;42177;48.914;18.160;2022-09-21T20:03:56;992.5;;;11.5;100
56272;BME280;42177;48.914;18.160;2022-09-21T20:09:00;992.5;;;11.5;100
56272;BME280;42177;48.914;18.160;2022-09-21T20:14:03;992.4;;;11.2;100
56272;BME280;42177;48.914;18.160;2022-09-21T20:18:58;992.4;;;11.2;100
56272;BME280;42177;48.914;18.160;2022-09-21T20:23:57;992.4;;;11.2;100
56272;BME280;42177;48.914;18.160;2022-09-21T20:28:57;992.4;;;11.2;100
56272;BME280;42177;48.914;18.160;2022-09-21T20:33:57;992.5;;;11.3;100
56272;BME280;42177;48.914;18.160;2022-09-21T20:38:57;992.5;;;11.3;100
56272;BME280;42177;48.914;18.160;2022-09-21T20:43:57;992.5;;;10.9;100
56272;BME280;42177;48.914;18.160;2022-09-21T20:48:57;992.5;;;10.9;100
56272;BME280;42177;48.914;18.160;2022-09-21T20:53:56;992.6;;;11;100
56272;BME280;42177;48.914;18.160;2022-09-21T20:58:56;992.6;;;11;100
56272;BME280;42177;48.914;18.160;2022-09-21T21:03:56;992.5;;;10.8;100
56272;BME280;42177;48.914;18.160;2022-09-21T21:08:56;992.5;;;10.8;100
56272;BME280;42177;48.914;18.160;2022-09-21T21:13:57;992.4;;;10.7;100
56272;BME280;42177;48.914;18.160;2022-09-21T21:18:57;992.4;;;10.7;100
56272;BME280;42177;48.914;18.160;2022-09-21T21:23:56;992.6;;;10.6;100
56272;BME280;42177;48.914;18.160;2022-09-21T21:28:57;992.6;;;10.6;100
56272;BME280;42177;48.914;18.160;2022-09-21T21:33:57;992.5;;;10.4;100
56272;BME280;42177;48.914;18.160;2022-09-21T21:38:57;992.5;;;10.4;100
56272;BME280;42177;48.914;18.160;2022-09-21T21:43:57;992.4;;;10.5;100
56272;BME280;42177;48.914;18.160;2022-09-21T21:48:56;992.4;;;10.5;100
56272;BME280;42177;48.914;18.160;2022-09-21T21:53:56;992.3;;;10.2;100
56272;BME280;42177;48.914;18.160;2022-09-21T21:58:57;992.3;;;10.2;100
56272;BME280;42177;48.914;18.160;2022-09-21T22:03:57;992.3;;;10.4;100
56272;BME280;42177;48.914;18.160;2022-09-21T22:08:57;992.3;;;10.4;100
56272;BME280;42177;48.914;18.160;2022-09-21T22:13:57;992.4;;;10.1;100
56272;BME280;42177;48.914;18.160;2022-09-21T22:18:57;992.4;;;10.1;100
56272;BME280;42177;48.914;18.160;2022-09-21T22:28:58;992.4;;;10.3;100
56272;BME280;42177;48.914;18.160;2022-09-21T22:33:57;992.3;;;10.4;100
56272;BME280;42177;48.914;18.160;2022-09-21T22:38:59;992.3;;;10.4;100
56272;BME280;42177;48.914;18.160;2022-09-21T22:43:57;992.3;;;10.3;100
56272;BME280;42177;48.914;18.160;2022-09-21T22:48:57;992.3;;;10.3;100
56272;BME280;42177;48.914;18.160;2022-09-21T22:53:56;992.1;;;10.1;100
56272;BME280;42177;48.914;18.160;2022-09-21T22:58:57;992.1;;;10.1;100
56272;BME280;42177;48.914;18.160;2022-09-21T23:03:57;992;;;10.3;100
56272;BME280;42177;48.914;18.160;2022-09-21T23:08:57;992;;;10.3;100
56272;BME280;42177;48.914;18.160;2022-09-21T23:13:57;992;;;9.7;100
56272;BME280;42177;48.914;18.160;2022-09-21T23:18:56;992;;;9.7;100
56272;BME280;42177;48.914;18.160;2022-09-21T23:23:57;991.9;;;9.5;100
56272;BME280;42177;48.914;18.160;2022-09-21T23:28:57;991.9;;;9.5;100
56272;BME280;42177;48.914;18.160;2022-09-21T23:33:57;991.9;;;9.3;100
56272;BME280;42177;48.914;18.160;2022-09-21T23:38:57;991.9;;;9.3;100
56272;BME280;42177;48.914;18.160;2022-09-21T23:43:57;992;;;9.3;100
56272;BME280;42177;48.914;18.160;2022-09-21T23:48:57;992;;;9.3;100
56272;BME280;42177;48.914;18.160;2022-09-21T23:53:57;992;;;9.3;100
56272;BME280;42177;48.914;18.160;2022-09-21T23:58:57;992;;;9.3;100
